createdAt,value
2023-04-19T00:01:44.360Z,10.58
2023-04-19T00:04:11.743Z,10.48
2023-04-19T00:06:41.041Z,10.40
2023-04-19T00:09:09.177Z,10.41
2023-04-19T00:11:36.189Z,10.49
2023-04-19T00:14:03.241Z,10.20
2023-04-19T00:16:30.386Z,10.17
2023-04-19T00:18:57.408Z,9.91
2023-04-19T00:21:24.450Z,10.10
2023-04-19T00:23:54.043Z,9.90
2023-04-19T00:26:21.302Z,9.84
2023-04-19T00:28:48.295Z,9.89
2023-04-19T00:31:15.331Z,9.90
2023-04-19T00:33:42.353Z,9.79
2023-04-19T00:36:10.839Z,9.93
2023-04-19T00:38:37.850Z,9.88
2023-04-19T00:41:05.089Z,9.74
2023-04-19T00:43:32.068Z,9.74
2023-04-19T00:45:59.409Z,9.69
2023-04-19T00:48:26.551Z,9.82
2023-04-19T00:50:53.629Z,9.82
2023-04-19T00:53:20.669Z,9.70
2023-04-19T00:55:50.937Z,9.73
2023-04-19T00:58:18.255Z,9.67
2023-04-19T01:00:45.287Z,9.45
2023-04-19T01:03:13.678Z,9.45
2023-04-19T01:05:41.065Z,9.36
2023-04-19T01:08:08.466Z,9.42
2023-04-19T01:10:35.521Z,9.33
2023-04-19T01:13:02.685Z,9.40
2023-04-19T01:15:31.298Z,9.36
2023-04-19T01:17:58.327Z,9.41
2023-04-19T01:20:25.593Z,9.45
2023-04-19T01:22:52.684Z,9.43
2023-04-19T01:25:19.845Z,9.20
2023-04-19T01:27:46.994Z,9.29
2023-04-19T01:30:14.311Z,9.30
2023-04-19T01:32:41.351Z,9.15
2023-04-19T01:35:11.358Z,9.21
2023-04-19T01:37:38.523Z,9.25
2023-04-19T01:40:06.484Z,9.14
2023-04-19T01:42:33.499Z,9.10
2023-04-19T01:45:00.682Z,9.00
2023-04-19T01:47:27.741Z,8.98
2023-04-19T01:49:54.873Z,9.02
2023-04-19T01:52:21.873Z,8.84
2023-04-19T01:54:49.087Z,8.98
2023-04-19T01:57:16.700Z,9.11
2023-04-19T01:59:43.780Z,8.97
2023-04-19T02:02:10.993Z,9.05
2023-04-19T02:04:38.025Z,8.85
2023-04-19T02:07:05.022Z,8.76
2023-04-19T02:09:35.857Z,8.86
2023-04-19T02:12:03.298Z,8.68
2023-04-19T02:14:30.321Z,8.67
2023-04-19T02:16:57.717Z,8.81
2023-04-19T02:19:24.919Z,8.82
2023-04-19T02:21:53.700Z,8.84
2023-04-19T02:24:20.704Z,8.78
2023-04-19T02:26:47.744Z,8.71
2023-04-19T02:29:16.871Z,8.82
2023-04-19T02:31:46.450Z,8.67
2023-04-19T02:34:13.828Z,8.77
2023-04-19T02:36:41.070Z,8.84
2023-04-19T02:39:08.489Z,8.76
2023-04-19T02:41:35.667Z,8.82
2023-04-19T02:44:02.721Z,8.85
2023-04-19T02:46:29.836Z,8.79
2023-04-19T02:48:56.901Z,8.89
2023-04-19T02:51:23.964Z,8.80
2023-04-19T02:53:50.929Z,8.74
2023-04-19T02:56:17.908Z,8.90
2023-04-19T02:58:45.449Z,8.88
2023-04-19T03:01:12.511Z,8.85
2023-04-19T03:03:39.580Z,8.91
2023-04-19T03:06:06.929Z,8.76
2023-04-19T03:08:34.098Z,8.93
2023-04-19T03:11:01.033Z,8.83
2023-04-19T03:13:28.075Z,8.94
2023-04-19T03:15:55.111Z,8.75
2023-04-19T03:18:22.497Z,8.76
2023-04-19T03:20:49.496Z,8.64
2023-04-19T03:23:16.614Z,8.69
2023-04-19T03:25:43.690Z,8.61
2023-04-19T03:28:10.732Z,8.55
2023-04-19T03:30:37.712Z,8.79
2023-04-19T03:33:04.815Z,8.74
2023-04-19T03:35:32.548Z,8.74
2023-04-19T03:37:59.550Z,8.67
2023-04-19T03:40:26.528Z,8.81
2023-04-19T03:42:53.676Z,8.80
2023-04-19T03:45:20.765Z,8.73
2023-04-19T03:47:47.849Z,8.61
2023-04-19T03:50:14.910Z,8.92
2023-04-19T03:52:41.874Z,8.72
2023-04-19T03:55:10.060Z,8.81
2023-04-19T03:57:37.672Z,8.82
2023-04-19T04:00:09.041Z,8.82
2023-04-19T04:02:39.835Z,8.77
2023-04-19T04:05:07.909Z,8.74
2023-04-19T04:07:35.231Z,8.71
2023-04-19T04:10:02.234Z,8.63
2023-04-19T04:12:29.307Z,8.68
2023-04-19T04:14:56.326Z,8.51
2023-04-19T04:17:24.550Z,8.56
2023-04-19T04:19:51.602Z,8.67
2023-04-19T04:22:18.640Z,8.66
2023-04-19T04:24:45.619Z,8.65
2023-04-19T04:27:12.863Z,8.54
2023-04-19T04:29:41.308Z,8.57
2023-04-19T04:32:10.597Z,8.64
2023-04-19T04:34:38.639Z,8.55
2023-04-19T04:37:05.836Z,8.70
2023-04-19T04:39:35.167Z,8.60
2023-04-19T04:42:02.520Z,8.64
2023-04-19T04:44:29.552Z,8.60
2023-04-19T04:46:56.551Z,8.55
2023-04-19T04:49:23.565Z,8.60
2023-04-19T04:51:51.392Z,8.60
2023-04-19T04:54:18.386Z,8.49
2023-04-19T04:56:45.511Z,8.53
2023-04-19T04:59:12.521Z,8.61
2023-04-19T05:01:39.531Z,8.57
2023-04-19T05:04:06.656Z,8.58
2023-04-19T05:06:33.705Z,8.57
2023-04-19T05:09:00.814Z,8.56
2023-04-19T05:11:28.017Z,8.66
2023-04-19T05:13:54.991Z,8.65
2023-04-19T05:16:22.319Z,8.76
2023-04-19T05:18:49.471Z,8.74
2023-04-19T05:21:16.438Z,8.77
2023-04-19T05:23:43.486Z,8.68
2023-04-19T05:26:15.390Z,8.60
2023-04-19T05:28:43.721Z,8.58
2023-04-19T05:31:11.171Z,8.58
2023-04-19T05:33:38.489Z,8.57
2023-04-19T05:36:05.760Z,8.66
2023-04-19T05:38:32.747Z,8.77
2023-04-19T05:41:00.406Z,8.65
2023-04-19T05:43:27.445Z,8.79
2023-04-19T05:45:54.461Z,8.80
2023-04-19T05:48:21.502Z,8.80
2023-04-19T05:50:48.499Z,8.74
2023-04-19T05:53:15.625Z,8.86
2023-04-19T05:55:42.881Z,8.89
2023-04-19T05:58:09.890Z,8.90
2023-04-19T06:00:38.117Z,8.86
2023-04-19T06:03:05.460Z,8.82
2023-04-19T06:05:32.904Z,8.91
2023-04-19T06:08:02.861Z,9.08
2023-04-19T06:10:40.478Z,9.05
2023-04-19T06:13:17.514Z,8.89
2023-04-19T06:15:44.571Z,8.97
2023-04-19T06:18:19.583Z,9.00
2023-04-19T06:20:47.377Z,9.04
2023-04-19T06:23:15.198Z,9.02
2023-04-19T06:25:42.722Z,9.02
2023-04-19T06:28:09.786Z,9.10
2023-04-19T06:30:37.049Z,8.86
2023-04-19T06:33:04.156Z,9.01
2023-04-19T06:35:32.339Z,9.11
2023-04-19T06:37:59.932Z,9.12
2023-04-19T06:40:29.056Z,9.05
2023-04-19T06:42:56.205Z,9.15
2023-04-19T06:45:23.372Z,9.17
2023-04-19T06:47:50.373Z,9.23
2023-04-19T06:50:17.549Z,9.29
2023-04-19T06:52:44.553Z,9.33
2023-04-19T06:55:11.727Z,9.32
2023-04-19T06:57:38.712Z,9.45
2023-04-19T07:00:06.832Z,9.58
2023-04-19T07:02:34.138Z,9.67
2023-04-19T07:05:01.496Z,9.59
2023-04-19T07:07:28.496Z,9.74
2023-04-19T07:09:55.681Z,9.70
2023-04-19T07:12:22.736Z,9.80
2023-04-19T07:14:49.772Z,9.96
2023-04-19T07:17:18.269Z,10.24
2023-04-19T07:19:48.947Z,10.24
2023-04-19T07:22:16.098Z,10.15
2023-04-19T07:24:44.649Z,10.19
2023-04-19T07:27:12.164Z,10.01
2023-04-19T07:29:41.301Z,9.91
2023-04-19T07:32:08.641Z,10.02
2023-04-19T07:34:38.387Z,10.10
2023-04-19T07:37:05.375Z,10.03
2023-04-19T07:39:32.577Z,9.97
2023-04-19T07:42:00.861Z,9.73
2023-04-19T07:44:28.061Z,9.75
2023-04-19T07:46:55.175Z,9.81
2023-04-19T07:49:22.239Z,9.82
2023-04-19T07:51:49.594Z,9.92
2023-04-19T07:54:18.192Z,9.73
2023-04-19T07:56:45.895Z,9.46
2023-04-19T07:59:12.907Z,9.34
2023-04-19T08:01:40.019Z,9.44
2023-04-19T08:04:08.118Z,9.30
2023-04-19T08:06:39.575Z,9.49
2023-04-19T08:09:06.890Z,9.46
2023-04-19T08:11:33.966Z,9.57
2023-04-19T08:16:59.231Z,9.59
2023-04-19T08:19:18.002Z,9.96
2023-04-19T08:21:45.084Z,9.87
2023-04-19T08:24:12.052Z,9.87
2023-04-19T08:26:39.368Z,10.02
2023-04-19T08:29:06.412Z,10.02
2023-04-19T08:31:33.517Z,9.93
2023-04-19T08:34:00.717Z,9.95
2023-04-19T08:36:37.701Z,9.97
2023-04-19T08:39:17.717Z,10.03
2023-04-19T08:42:04.854Z,10.06
2023-04-19T08:44:37.632Z,10.18
2023-04-19T08:47:11.508Z,10.17
2023-04-19T08:49:42.746Z,9.91
2023-04-19T08:52:13.856Z,9.98
2023-04-19T08:54:42.572Z,10.02
2023-04-19T08:57:09.974Z,10.15
2023-04-19T08:59:37.172Z,10.06
2023-04-19T09:02:04.539Z,10.18
2023-04-19T09:04:36.769Z,10.25
2023-04-19T09:07:04.783Z,10.56
2023-04-19T09:12:02.325Z,10.36
2023-04-19T09:14:29.942Z,10.51
2023-04-19T09:17:17.365Z,10.20
2023-04-19T09:19:50.028Z,10.30
2023-04-19T09:22:18.174Z,10.36
2023-04-19T09:27:36.594Z,10.31
2023-04-19T09:30:06.756Z,10.34
2023-04-19T09:32:49.456Z,10.34
2023-04-19T09:35:16.843Z,10.46
2023-04-19T09:38:05.710Z,10.37
2023-04-19T09:40:33.650Z,10.17
2023-04-19T09:43:15.086Z,10.45
2023-04-19T09:45:48.915Z,10.26
2023-04-19T09:48:15.944Z,10.53
2023-04-19T09:51:01.939Z,10.47
2023-04-19T09:53:35.665Z,10.35
2023-04-19T09:56:04.277Z,10.39
2023-04-19T09:58:42.490Z,10.45
2023-04-19T10:01:18.621Z,10.46
2023-04-19T10:03:50.691Z,10.62
2023-04-19T10:08:53.581Z,10.72
2023-04-19T10:11:22.868Z,10.79
2023-04-19T10:13:56.191Z,10.68
2023-04-19T10:16:23.534Z,10.59
2023-04-19T10:18:52.372Z,10.71
2023-04-19T10:21:20.816Z,10.67
2023-04-19T10:23:48.634Z,10.73
2023-04-19T10:26:16.098Z,10.87
2023-04-19T10:28:43.182Z,10.80
2023-04-19T10:31:13.870Z,10.51
2023-04-19T10:33:42.032Z,10.43
2023-04-19T10:36:14.248Z,10.56
2023-04-19T10:38:49.772Z,10.73
2023-04-19T10:41:19.388Z,10.57
2023-04-19T10:43:46.400Z,10.41
2023-04-19T10:46:20.984Z,10.49
2023-04-19T10:48:54.678Z,10.48
2023-04-19T10:51:47.532Z,10.61
2023-04-19T10:54:34.367Z,10.62
2023-04-19T10:57:08.204Z,10.63
2023-04-19T10:59:40.697Z,10.54
2023-04-19T11:02:28.820Z,10.49
2023-04-19T11:04:55.954Z,10.79
2023-04-19T11:07:24.885Z,10.76
2023-04-19T11:09:52.771Z,10.57
2023-04-19T11:12:21.825Z,10.56
2023-04-19T11:14:53.585Z,10.75
2023-04-19T11:17:31.174Z,11.06
2023-04-19T11:20:01.641Z,11.31
2023-04-19T11:22:39.568Z,11.46
2023-04-19T11:25:13.928Z,11.65
2023-04-19T11:27:43.134Z,11.87
2023-04-19T11:30:13.398Z,11.88
2023-04-19T11:32:54.980Z,11.84
2023-04-19T11:35:24.627Z,11.95
2023-04-19T11:37:52.798Z,12.24
2023-04-19T11:40:21.997Z,12.59
2023-04-19T11:43:02.268Z,12.58
2023-04-19T11:45:39.716Z,12.72
2023-04-19T11:48:17.159Z,13.18
2023-04-19T11:50:45.878Z,13.30
2023-04-19T11:53:24.353Z,13.30
2023-04-19T11:55:57.661Z,13.34
2023-04-19T11:58:51.488Z,13.70
2023-04-19T12:01:22.191Z,13.77
2023-04-19T12:03:52.294Z,13.43
2023-04-19T12:06:24.622Z,13.51
2023-04-19T12:08:54.009Z,13.65
2023-04-19T12:11:26.872Z,13.86
2023-04-19T12:14:13.565Z,13.75
2023-04-19T12:16:41.040Z,14.02
2023-04-19T12:19:17.740Z,14.26
2023-04-19T12:21:46.562Z,14.38
2023-04-19T12:24:16.839Z,14.10
2023-04-19T12:26:56.329Z,13.80
2023-04-19T12:29:23.619Z,13.42
2023-04-19T12:31:51.144Z,13.30
2023-04-19T12:34:18.278Z,13.22
2023-04-19T12:36:45.494Z,13.24
2023-04-19T12:39:12.803Z,12.79
2023-04-19T12:41:39.797Z,12.76
2023-04-19T12:44:06.759Z,12.58
2023-04-19T12:46:33.879Z,12.74
2023-04-19T12:49:00.878Z,12.73
2023-04-19T12:51:28.027Z,12.74
2023-04-19T12:53:55.023Z,12.68
2023-04-19T12:56:22.107Z,12.90
2023-04-19T12:58:49.227Z,13.00
2023-04-19T13:01:16.302Z,12.99
2023-04-19T13:03:43.620Z,13.04
2023-04-19T13:06:14.778Z,12.96
2023-04-19T13:08:46.553Z,13.15
2023-04-19T13:11:16.060Z,13.51
2023-04-19T13:13:43.163Z,13.38
2023-04-19T13:16:11.091Z,13.32
2023-04-19T13:18:38.218Z,13.39
2023-04-19T13:21:07.415Z,13.43
2023-04-19T13:23:35.309Z,13.68
2023-04-19T13:26:02.307Z,13.82
2023-04-19T13:28:30.370Z,14.14
2023-04-19T13:30:57.539Z,13.73
2023-04-19T13:33:25.885Z,13.98
2023-04-19T13:35:52.869Z,14.44
2023-04-19T13:38:19.909Z,14.49
2023-04-19T13:40:46.893Z,14.71
2023-04-19T13:43:13.863Z,14.68
2023-04-19T13:45:40.818Z,14.46
2023-04-19T13:48:07.875Z,14.20
2023-04-19T13:50:35.034Z,14.34
2023-04-19T13:53:02.111Z,14.29
2023-04-19T13:55:29.124Z,14.32
2023-04-19T13:57:56.068Z,14.15
2023-04-19T14:00:23.268Z,14.35
2023-04-19T14:02:52.222Z,14.50
2023-04-19T14:05:19.713Z,14.38
2023-04-19T14:07:46.994Z,14.59
2023-04-19T14:10:14.034Z,14.45
2023-04-19T14:12:41.453Z,14.35
2023-04-19T14:15:09.011Z,14.26
2023-04-19T14:17:36.138Z,14.28
2023-04-19T14:20:06.372Z,14.21
2023-04-19T14:22:35.303Z,14.15
2023-04-19T14:25:04.165Z,14.24
2023-04-19T14:27:31.175Z,14.24
2023-04-19T14:29:58.428Z,14.18
2023-04-19T14:32:27.016Z,14.44
2023-04-19T14:34:56.246Z,14.69
2023-04-19T14:37:24.643Z,14.40
2023-04-19T14:39:52.196Z,14.31
2023-04-19T14:42:22.256Z,14.16
2023-04-19T14:44:52.215Z,14.40
2023-04-19T14:47:19.706Z,14.58
2023-04-19T14:49:46.938Z,14.65
2023-04-19T14:52:13.908Z,14.71
2023-04-19T14:54:40.981Z,14.81
2023-04-19T14:57:08.006Z,14.71
2023-04-19T14:59:35.088Z,14.60
2023-04-19T15:02:02.213Z,14.90
2023-04-19T15:04:29.330Z,14.66
2023-04-19T15:06:56.456Z,14.61
2023-04-19T15:09:23.489Z,14.79
2023-04-19T15:11:50.574Z,15.06
2023-04-19T15:14:17.541Z,15.27
2023-04-19T15:16:44.571Z,15.14
2023-04-19T15:19:11.583Z,14.92
2023-04-19T15:21:38.600Z,15.07
2023-04-19T15:24:07.573Z,14.94
2023-04-19T15:26:35.797Z,14.76
2023-04-19T15:29:02.888Z,14.47
2023-04-19T15:31:32.221Z,13.66
2023-04-19T15:34:02.894Z,13.21
2023-04-19T15:36:30.222Z,12.55
2023-04-19T15:38:58.591Z,12.36
2023-04-19T15:41:25.818Z,12.21
2023-04-19T15:43:53.047Z,12.03
2023-04-19T15:46:20.225Z,11.78
2023-04-19T15:48:48.417Z,11.78
2023-04-19T15:51:16.137Z,11.84
2023-04-19T15:53:43.316Z,11.84
2023-04-19T15:56:10.993Z,11.89
2023-04-19T15:58:38.194Z,11.83
2023-04-19T16:01:12.109Z,11.82
2023-04-19T16:03:39.763Z,11.93
2023-04-19T16:06:07.062Z,11.88
2023-04-19T16:08:34.306Z,11.92
2023-04-19T16:11:01.437Z,11.73
2023-04-19T16:13:30.759Z,11.83
2023-04-19T16:15:58.521Z,11.91
2023-04-19T16:18:25.571Z,11.82
2023-04-19T16:20:54.468Z,11.95
2023-04-19T16:23:24.018Z,12.05
2023-04-19T16:25:51.549Z,11.99
2023-04-19T16:28:19.879Z,11.87
2023-04-19T16:30:47.575Z,12.02
2023-04-19T16:33:15.824Z,12.06
2023-04-19T16:35:42.971Z,11.85
2023-04-19T16:38:10.114Z,11.86
2023-04-19T16:40:37.242Z,11.86
2023-04-19T16:43:06.312Z,11.85
2023-04-19T16:45:33.468Z,11.74
2023-04-19T16:48:00.620Z,11.73
2023-04-19T16:50:27.764Z,11.70
2023-04-19T16:52:54.776Z,11.65
2023-04-19T16:55:22.101Z,11.86
2023-04-19T16:57:51.009Z,11.77
2023-04-19T17:00:18.444Z,11.68
2023-04-19T17:02:45.834Z,11.75
2023-04-19T17:05:14.377Z,11.62
2023-04-19T17:07:42.146Z,11.61
2023-04-19T17:10:09.817Z,11.65
2023-04-19T17:12:36.845Z,11.64
2023-04-19T17:15:04.516Z,11.62
2023-04-19T17:17:31.611Z,11.57
2023-04-19T17:19:58.704Z,11.61
2023-04-19T17:22:25.770Z,11.52
2023-04-19T17:24:54.240Z,11.54
2023-04-19T17:27:21.269Z,11.63
2023-04-19T17:29:48.346Z,11.51
2023-04-19T17:32:15.584Z,11.48
2023-04-19T17:34:42.582Z,11.39
2023-04-19T17:37:09.577Z,11.48
2023-04-19T17:39:36.568Z,11.51
2023-04-19T17:42:03.632Z,11.67
2023-04-19T17:44:30.849Z,11.53
2023-04-19T17:46:58.112Z,11.42
2023-04-19T17:49:27.081Z,11.32
2023-04-19T17:51:56.212Z,11.23
2023-04-19T17:54:23.333Z,11.26
2023-04-19T17:56:52.513Z,11.35
2023-04-19T17:59:19.557Z,11.30
2023-04-19T18:01:46.726Z,11.25
2023-04-19T18:04:17.848Z,11.41
2023-04-19T18:06:45.949Z,11.08
2023-04-19T18:09:13.695Z,11.07
2023-04-19T18:11:41.310Z,10.85
2023-04-19T18:14:08.414Z,10.83
2023-04-19T18:16:35.622Z,10.83
2023-04-19T18:19:02.765Z,10.72
2023-04-19T18:21:29.775Z,10.69
2023-04-19T18:23:56.821Z,10.65
2023-04-19T18:26:23.870Z,10.68
2023-04-19T18:28:50.911Z,10.68
2023-04-19T18:31:17.997Z,10.47
2023-04-19T18:33:44.975Z,10.77
2023-04-19T18:36:12.002Z,10.59
2023-04-19T18:38:39.040Z,10.58
2023-04-19T18:41:06.141Z,10.26
2023-04-19T18:43:33.141Z,10.26
2023-04-19T18:46:01.435Z,10.30
2023-04-19T18:48:29.938Z,10.34
2023-04-19T18:50:57.707Z,10.39
2023-04-19T18:53:29.375Z,10.39
2023-04-19T18:56:00.354Z,10.57
2023-04-19T18:58:29.336Z,10.49
2023-04-19T19:00:57.093Z,10.41
2023-04-19T19:05:55.506Z,10.37
2023-04-19T19:08:22.770Z,10.29
2023-04-19T19:11:14.057Z,10.17
2023-04-19T19:13:36.839Z,10.46
2023-04-19T19:16:05.761Z,10.53
2023-04-19T19:18:32.969Z,10.60
2023-04-19T19:21:03.290Z,10.46
2023-04-19T19:26:01.182Z,10.55
2023-04-19T19:28:28.189Z,10.45
2023-04-19T19:30:55.227Z,10.45
2023-04-19T19:33:22.456Z,10.54
2023-04-19T19:35:49.489Z,10.62
2023-04-19T19:38:16.773Z,10.45
2023-04-19T19:41:11.109Z,10.56
2023-04-19T19:43:30.974Z,10.51
2023-04-19T19:45:58.093Z,10.45
2023-04-19T19:48:25.657Z,10.59
2023-04-19T19:53:22.655Z,10.60
2023-04-19T19:55:50.098Z,10.65
2023-04-19T19:58:42.766Z,10.83
2023-04-19T20:01:04.800Z,10.80
2023-04-19T20:03:37.332Z,10.82
2023-04-19T20:08:41.217Z,10.66
2023-04-19T20:11:11.080Z,10.86
2023-04-19T20:13:38.123Z,10.74
2023-04-19T20:16:06.497Z,10.69
2023-04-19T20:18:34.986Z,10.69
2023-04-19T20:21:02.125Z,10.76
2023-04-19T20:23:29.140Z,10.72
2023-04-19T20:25:56.140Z,10.84
2023-04-19T20:28:23.221Z,10.95
2023-04-19T20:30:50.583Z,11.10
2023-04-19T20:33:17.649Z,11.33
2023-04-19T20:35:44.661Z,11.07
2023-04-19T20:38:12.807Z,10.95
2023-04-19T20:40:39.901Z,10.88
2023-04-19T20:43:08.233Z,10.92
2023-04-19T20:45:35.486Z,10.88
2023-04-19T20:48:03.189Z,10.91
2023-04-19T20:50:30.299Z,10.99
2023-04-19T20:52:58.194Z,11.07
2023-04-19T20:55:25.437Z,10.99
2023-04-19T20:57:52.495Z,10.86
2023-04-19T21:00:20.706Z,10.82
2023-04-19T21:02:49.757Z,10.98
2023-04-19T21:05:17.330Z,10.92
2023-04-19T21:07:44.524Z,10.82
2023-04-19T21:10:11.834Z,10.89
2023-04-19T21:12:38.938Z,11.02
2023-04-19T21:15:07.063Z,11.04
2023-04-19T21:17:34.161Z,11.07
2023-04-19T21:20:03.015Z,11.02
2023-04-19T21:22:30.306Z,11.03
2023-04-19T21:24:57.347Z,10.93
2023-04-19T21:27:24.439Z,10.96
2023-04-19T21:29:51.406Z,10.91
2023-04-19T21:32:18.576Z,10.92
2023-04-19T21:34:46.067Z,10.83
2023-04-19T21:37:13.110Z,10.93
2023-04-19T21:39:40.123Z,10.94
2023-04-19T21:42:07.129Z,10.88
2023-04-19T21:44:35.032Z,10.85
2023-04-19T21:47:02.288Z,10.95
2023-04-19T21:49:29.355Z,10.89
2023-04-19T21:51:56.974Z,10.94
2023-04-19T21:54:33.216Z,11.11
2023-04-19T21:57:01.620Z,11.00
2023-04-19T21:59:30.709Z,11.04
2023-04-19T22:01:59.101Z,11.06
2023-04-19T22:04:26.458Z,10.93
2023-04-19T22:06:53.966Z,11.14
2023-04-19T22:09:21.039Z,10.91
2023-04-19T22:11:50.280Z,10.91
2023-04-19T22:14:17.813Z,11.05
2023-04-19T22:16:44.970Z,10.90
2023-04-19T22:19:12.012Z,10.89
2023-04-19T22:21:39.119Z,10.79
2023-04-19T22:24:06.874Z,10.85
2023-04-19T22:26:34.477Z,10.78
2023-04-19T22:29:01.655Z,10.85
2023-04-19T22:31:28.700Z,10.91
2023-04-19T22:33:55.773Z,11.07
2023-04-19T22:36:22.868Z,10.92
2023-04-19T22:38:50.069Z,10.79
2023-04-19T22:41:17.489Z,10.93
2023-04-19T22:43:44.518Z,10.80
2023-04-19T22:46:12.926Z,10.96
2023-04-19T22:48:39.970Z,10.77
2023-04-19T22:51:07.480Z,10.66
2023-04-19T22:53:34.514Z,10.68
2023-04-19T22:56:01.544Z,10.67
2023-04-19T22:58:28.623Z,10.66
2023-04-19T23:00:55.865Z,10.61
2023-04-19T23:03:22.896Z,10.68
2023-04-19T23:05:49.950Z,10.56
2023-04-19T23:08:16.947Z,10.45
2023-04-19T23:10:45.319Z,10.52
2023-04-19T23:13:15.813Z,10.63
2023-04-19T23:15:43.485Z,10.57
2023-04-19T23:18:11.673Z,10.61
2023-04-19T23:20:38.684Z,10.53
2023-04-19T23:23:06.011Z,10.72
2023-04-19T23:25:33.245Z,10.49
2023-04-19T23:28:00.313Z,10.45
2023-04-19T23:30:27.693Z,10.32
2023-04-19T23:32:54.696Z,10.45
2023-04-19T23:35:22.286Z,10.50
2023-04-19T23:37:49.519Z,10.43
2023-04-19T23:40:16.555Z,10.39
2023-04-19T23:42:43.571Z,10.44
2023-04-19T23:45:11.551Z,10.34
2023-04-19T23:47:38.604Z,10.27
2023-04-19T23:50:06.381Z,10.20
2023-04-19T23:52:33.434Z,10.16
2023-04-19T23:55:00.554Z,10.23
2023-04-19T23:57:27.671Z,10.07
2023-04-19T23:59:54.715Z,10.00
